createdAt,value
2019-05-17T00:02:13.664Z,8.11
2019-05-17T00:04:46.983Z,8.17
2019-05-17T00:07:18.227Z,8.30
2019-05-17T00:09:49.737Z,8.23
2019-05-17T00:12:21.294Z,8.19
2019-05-17T00:14:52.495Z,8.20
2019-05-17T00:17:23.721Z,8.24
2019-05-17T00:19:56.855Z,8.24
2019-05-17T00:22:28.081Z,8.23
2019-05-17T00:24:59.410Z,8.23
2019-05-17T00:27:31.924Z,8.22
2019-05-17T00:30:03.153Z,8.00
2019-05-17T00:32:36.727Z,7.97
2019-05-17T00:35:08.151Z,7.87
2019-05-17T00:37:39.348Z,7.93
2019-05-17T00:40:10.903Z,7.97
2019-05-17T00:42:42.169Z,7.98
2019-05-17T00:45:32.188Z,7.89
2019-05-17T00:48:06.298Z,7.94
2019-05-17T00:50:38.091Z,7.93
2019-05-17T00:53:09.824Z,8.01
2019-05-17T00:55:42.153Z,7.99
2019-05-17T00:58:13.350Z,7.99
2019-05-17T01:00:47.689Z,8.01
2019-05-17T01:03:18.210Z,8.00
2019-05-17T01:05:49.579Z,8.03
2019-05-17T01:08:20.795Z,8.01
2019-05-17T01:10:52.065Z,8.02
2019-05-17T01:13:23.633Z,7.98
2019-05-17T01:15:56.597Z,7.87
2019-05-17T01:18:27.968Z,7.91
2019-05-17T01:20:59.192Z,7.87
2019-05-17T01:23:31.068Z,7.80
2019-05-17T01:26:02.442Z,7.86
2019-05-17T01:28:36.470Z,7.84
2019-05-17T01:31:06.895Z,7.88
2019-05-17T01:33:39.197Z,7.89
2019-05-17T01:36:10.473Z,7.83
2019-05-17T01:38:41.975Z,7.84
2019-05-17T01:41:13.266Z,7.89
2019-05-17T01:43:44.512Z,7.92
2019-05-17T01:46:17.148Z,7.86
2019-05-17T01:48:49.110Z,7.86
2019-05-17T01:51:27.076Z,7.82
2019-05-17T01:53:58.607Z,7.78
2019-05-17T01:56:29.826Z,7.74
2019-05-17T01:59:02.051Z,7.77
2019-05-17T02:01:33.847Z,7.77
2019-05-17T02:04:06.616Z,7.77
2019-05-17T02:06:38.320Z,7.75
2019-05-17T02:09:09.576Z,7.69
2019-05-17T02:11:41.066Z,7.68
2019-05-17T02:14:12.474Z,7.68
2019-05-17T02:16:43.700Z,7.66
2019-05-17T02:19:17.378Z,7.67
2019-05-17T02:21:48.573Z,7.61
2019-05-17T02:24:19.780Z,7.55
2019-05-17T02:26:51.032Z,7.49
2019-05-17T02:29:22.257Z,7.48
2019-05-17T02:31:54.081Z,7.47
2019-05-17T02:34:25.301Z,7.44
2019-05-17T02:36:56.528Z,7.39
2019-05-17T02:39:27.723Z,7.35
2019-05-17T02:41:59.103Z,7.36
2019-05-17T02:44:33.588Z,7.27
2019-05-17T02:47:03.436Z,7.21
2019-05-17T02:49:34.801Z,7.27
2019-05-17T02:52:06.478Z,7.19
2019-05-17T02:54:38.056Z,7.24
2019-05-17T02:57:09.351Z,7.20
2019-05-17T02:59:43.219Z,7.19
2019-05-17T03:02:14.212Z,7.13
2019-05-17T03:04:45.380Z,7.14
2019-05-17T03:07:16.748Z,7.07
2019-05-17T03:09:48.114Z,7.08
2019-05-17T03:12:19.544Z,7.00
2019-05-17T03:14:52.858Z,6.95
2019-05-17T03:17:24.238Z,6.83
2019-05-17T03:19:55.480Z,6.79
2019-05-17T03:22:27.117Z,6.80
2019-05-17T03:24:58.720Z,6.75
2019-05-17T03:27:33.509Z,6.79
2019-05-17T03:30:04.548Z,6.76
2019-05-17T03:32:37.319Z,6.70
2019-05-17T03:35:15.502Z,6.67
2019-05-17T03:37:43.762Z,6.63
2019-05-17T03:40:30.642Z,6.61
2019-05-17T03:42:48.166Z,6.57
2019-05-17T03:45:22.577Z,6.52
2019-05-17T03:47:53.205Z,6.53
2019-05-17T03:50:24.854Z,6.55
2019-05-17T03:52:56.070Z,6.45
2019-05-17T03:55:27.274Z,6.49
2019-05-17T03:57:58.764Z,6.48
2019-05-17T04:00:29.974Z,6.54
2019-05-17T04:03:03.069Z,6.54
2019-05-17T04:05:34.910Z,6.54
2019-05-17T04:08:06.082Z,6.51
2019-05-17T04:10:37.643Z,6.53
2019-05-17T04:13:08.968Z,6.56
2019-05-17T04:15:43.384Z,6.54
2019-05-17T04:18:13.695Z,6.57
2019-05-17T04:20:44.890Z,6.50
2019-05-17T04:23:16.148Z,6.51
2019-05-17T04:25:47.392Z,6.52
2019-05-17T04:28:18.615Z,6.49
2019-05-17T04:30:52.813Z,6.58
2019-05-17T04:33:23.669Z,6.62
2019-05-17T04:35:55.420Z,6.61
2019-05-17T04:38:26.989Z,6.66
2019-05-17T04:40:58.570Z,6.62
2019-05-17T04:43:33.447Z,6.72
2019-05-17T04:46:05.093Z,6.77
2019-05-17T04:48:36.770Z,6.85
2019-05-17T04:51:08.245Z,6.97
2019-05-17T04:53:42.803Z,6.84
2019-05-17T04:56:14.173Z,6.92
2019-05-17T04:58:49.954Z,6.95
2019-05-17T05:01:19.147Z,7.06
2019-05-17T05:03:52.487Z,7.12
2019-05-17T05:06:23.567Z,7.18
2019-05-17T05:08:54.803Z,7.30
2019-05-17T05:11:26.074Z,7.36
2019-05-17T05:13:57.282Z,7.49
2019-05-17T05:16:28.596Z,7.52
2019-05-17T05:19:02.790Z,7.53
2019-05-17T05:21:33.227Z,7.72
2019-05-17T05:24:04.467Z,7.85
2019-05-17T05:26:35.778Z,7.89
2019-05-17T05:29:07.044Z,7.98
2019-05-17T05:31:38.287Z,8.05
2019-05-17T05:34:12.162Z,8.21
2019-05-17T05:36:43.152Z,8.23
2019-05-17T05:39:14.652Z,8.31
2019-05-17T05:41:45.984Z,8.38
2019-05-17T05:44:17.368Z,8.47
2019-05-17T05:46:48.669Z,8.45
2019-05-17T05:49:21.697Z,8.53
2019-05-17T05:51:52.821Z,8.67
2019-05-17T05:54:24.299Z,8.68
2019-05-17T05:56:55.739Z,8.63
2019-05-17T05:59:26.988Z,8.66
2019-05-17T06:01:58.861Z,8.68
2019-05-17T06:04:31.860Z,8.69
2019-05-17T06:07:03.396Z,8.69
2019-05-17T06:09:34.697Z,8.68
2019-05-17T06:12:05.919Z,8.76
2019-05-17T06:14:37.536Z,8.82
2019-05-17T06:17:09.180Z,8.91
2019-05-17T06:19:42.194Z,8.89
2019-05-17T06:22:13.755Z,9.00
2019-05-17T06:24:44.986Z,9.06
2019-05-17T06:27:16.183Z,9.15
2019-05-17T06:29:47.996Z,9.14
2019-05-17T06:32:19.240Z,9.27
2019-05-17T06:34:51.490Z,9.50
2019-05-17T06:37:23.218Z,9.50
2019-05-17T06:39:55.224Z,9.48
2019-05-17T06:42:38.301Z,9.51
2019-05-17T06:45:01.947Z,9.50
2019-05-17T06:47:32.969Z,9.53
2019-05-17T06:50:04.667Z,9.48
2019-05-17T06:52:36.048Z,9.68
2019-05-17T06:55:07.734Z,9.55
2019-05-17T06:57:39.187Z,9.67
2019-05-17T07:00:18.119Z,9.66
2019-05-17T07:02:44.527Z,9.71
2019-05-17T07:05:20.072Z,9.74
2019-05-17T07:07:51.654Z,9.84
2019-05-17T07:10:23.455Z,9.96
2019-05-17T07:12:58.899Z,10.13
2019-05-17T07:15:43.363Z,10.16
2019-05-17T07:18:01.684Z,10.26
2019-05-17T07:20:33.323Z,10.25
2019-05-17T07:23:04.738Z,10.12
2019-05-17T07:25:36.016Z,10.25
2019-05-17T07:28:09.753Z,10.28
2019-05-17T07:30:40.516Z,10.42
2019-05-17T07:33:12.012Z,10.42
2019-05-17T07:35:43.208Z,10.52
2019-05-17T07:38:14.743Z,10.57
2019-05-17T07:40:46.309Z,10.57
2019-05-17T07:43:20.558Z,10.64
2019-05-17T07:45:51.301Z,10.79
2019-05-17T07:48:22.852Z,10.93
2019-05-17T07:50:54.092Z,11.06
2019-05-17T07:53:25.575Z,11.06
2019-05-17T07:55:56.785Z,11.15
2019-05-17T07:58:29.951Z,11.31
2019-05-17T08:01:02.399Z,11.19
2019-05-17T08:03:34.513Z,11.20
2019-05-17T08:06:05.834Z,11.05
2019-05-17T08:08:37.533Z,11.19
2019-05-17T08:11:12.128Z,11.31
2019-05-17T08:13:44.269Z,11.39
2019-05-17T08:16:16.319Z,11.48
2019-05-17T08:18:49.689Z,11.72
2019-05-17T08:21:21.104Z,11.76
2019-05-17T08:23:52.564Z,11.64
2019-05-17T08:26:23.795Z,11.68
2019-05-17T08:28:55.649Z,11.81
2019-05-17T08:31:44.993Z,11.84
2019-05-17T08:34:16.585Z,12.01
2019-05-17T08:36:50.199Z,12.02
2019-05-17T08:39:21.503Z,11.99
2019-05-17T08:41:52.774Z,12.02
2019-05-17T08:44:24.182Z,12.00
2019-05-17T08:46:55.617Z,12.05
2019-05-17T08:49:29.464Z,12.01
2019-05-17T08:51:59.998Z,12.15
2019-05-17T08:54:31.514Z,12.34
2019-05-17T08:57:02.818Z,12.36
2019-05-17T08:59:34.218Z,12.19
2019-05-17T09:02:05.463Z,12.09
2019-05-17T09:04:37.058Z,12.34
2019-05-17T09:07:09.472Z,12.35
2019-05-17T09:09:41.379Z,12.23
2019-05-17T09:12:12.638Z,12.44
2019-05-17T09:14:43.840Z,12.45
2019-05-17T09:17:15.085Z,12.56
2019-05-17T09:19:46.274Z,12.52
2019-05-17T09:22:19.670Z,12.54
2019-05-17T09:24:50.450Z,12.70
2019-05-17T09:27:21.730Z,12.80
2019-05-17T09:29:53.035Z,12.88
2019-05-17T09:32:25.124Z,13.01
2019-05-17T09:34:56.346Z,13.30
2019-05-17T09:37:30.336Z,13.45
2019-05-17T09:40:01.044Z,13.13
2019-05-17T09:42:32.316Z,13.14
2019-05-17T09:45:03.693Z,13.16
2019-05-17T09:47:34.929Z,13.37
2019-05-17T09:50:07.021Z,13.62
2019-05-17T09:52:40.615Z,13.56
2019-05-17T09:55:12.863Z,13.41
2019-05-17T09:57:45.112Z,13.35
2019-05-17T10:00:20.602Z,13.48
2019-05-17T10:02:52.184Z,13.42
2019-05-17T10:05:31.081Z,13.55
2019-05-17T10:08:01.288Z,13.89
2019-05-17T10:10:37.017Z,14.06
2019-05-17T10:13:09.813Z,14.15
2019-05-17T10:15:41.500Z,14.16
2019-05-17T10:18:13.073Z,14.11
2019-05-17T10:20:44.317Z,14.26
2019-05-17T10:23:16.375Z,14.64
2019-05-17T10:25:50.058Z,14.65
2019-05-17T10:28:23.207Z,15.02
2019-05-17T10:30:55.417Z,15.01
2019-05-17T10:33:26.825Z,15.35
2019-05-17T10:36:00.406Z,15.26
2019-05-17T10:38:31.046Z,15.28
2019-05-17T10:41:10.511Z,15.35
2019-05-17T10:43:41.744Z,15.35
2019-05-17T10:46:13.021Z,15.57
2019-05-17T10:48:44.632Z,15.31
2019-05-17T10:51:15.929Z,15.32
2019-05-17T10:53:47.197Z,15.13
2019-05-17T10:56:23.204Z,15.07
2019-05-17T10:58:52.651Z,15.02
2019-05-17T11:01:23.878Z,14.93
2019-05-17T11:03:55.332Z,14.72
2019-05-17T11:06:27.299Z,14.50
2019-05-17T11:08:59.472Z,14.75
2019-05-17T11:11:31.098Z,14.67
2019-05-17T11:14:03.038Z,14.74
2019-05-17T11:16:34.301Z,14.72
2019-05-17T11:19:08.633Z,14.85
2019-05-17T11:21:38.919Z,15.01
2019-05-17T11:27:34.949Z,14.87
2019-05-17T11:30:06.806Z,14.78
2019-05-17T11:32:38.051Z,14.82
2019-05-17T11:35:09.483Z,15.02
2019-05-17T11:37:40.765Z,15.00
2019-05-17T11:40:13.055Z,15.22
2019-05-17T11:42:44.735Z,15.04
2019-05-17T11:45:27.222Z,14.95
2019-05-17T11:47:49.206Z,14.94
2019-05-17T11:50:20.924Z,14.93
2019-05-17T11:52:52.234Z,15.25
2019-05-17T11:55:23.823Z,15.48
2019-05-17T11:57:55.244Z,15.46
2019-05-17T12:00:28.108Z,15.55
2019-05-17T12:03:00.182Z,15.46
2019-05-17T12:05:33.573Z,15.53
2019-05-17T12:08:08.360Z,15.70
2019-05-17T12:10:37.778Z,15.65
2019-05-17T12:13:10.300Z,15.51
2019-05-17T12:15:45.355Z,15.72
2019-05-17T12:18:14.943Z,15.54
2019-05-17T12:20:46.314Z,15.44
2019-05-17T12:23:17.521Z,15.56
2019-05-17T12:25:48.961Z,15.62
2019-05-17T12:28:20.191Z,15.48
2019-05-17T12:30:51.769Z,15.74
2019-05-17T12:33:23.391Z,15.51
2019-05-17T12:35:54.639Z,15.41
2019-05-17T12:38:25.842Z,15.50
2019-05-17T12:40:57.065Z,15.66
2019-05-17T12:43:28.552Z,15.91
2019-05-17T12:46:01.409Z,16.03
2019-05-17T12:48:32.725Z,16.20
2019-05-17T12:51:04.155Z,16.09
2019-05-17T12:53:37.430Z,16.15
2019-05-17T12:56:08.714Z,16.33
2019-05-17T12:58:39.985Z,16.34
2019-05-17T13:01:11.210Z,16.55
2019-05-17T13:03:42.690Z,16.53
2019-05-17T13:06:13.909Z,16.42
2019-05-17T13:08:45.207Z,16.37
2019-05-17T13:11:16.428Z,16.47
2019-05-17T13:13:47.853Z,16.62
2019-05-17T13:16:19.529Z,16.44
2019-05-17T13:18:50.909Z,16.30
2019-05-17T13:21:22.445Z,16.30
2019-05-17T13:23:53.656Z,16.27
2019-05-17T13:26:24.892Z,16.50
2019-05-17T13:28:56.249Z,16.59
2019-05-17T13:31:27.647Z,17.18
2019-05-17T13:33:58.892Z,17.35
2019-05-17T13:36:30.282Z,17.24
2019-05-17T13:39:02.522Z,17.05
2019-05-17T13:41:34.194Z,16.89
2019-05-17T13:44:05.400Z,16.88
2019-05-17T13:46:37.503Z,16.90
2019-05-17T13:49:08.785Z,16.84
2019-05-17T13:51:52.532Z,16.85
2019-05-17T13:54:23.749Z,17.01
2019-05-17T13:56:54.970Z,17.19
2019-05-17T13:59:26.285Z,17.38
2019-05-17T14:01:58.195Z,17.51
2019-05-17T14:04:30.501Z,17.48
2019-05-17T14:07:03.580Z,17.54
2019-05-17T14:09:34.830Z,17.54
2019-05-17T14:12:06.033Z,17.33
2019-05-17T14:14:37.491Z,17.22
2019-05-17T14:17:09.263Z,17.12
2019-05-17T14:19:40.584Z,17.06
2019-05-17T14:22:12.388Z,17.12
2019-05-17T14:24:46.234Z,17.18
2019-05-17T14:27:19.353Z,17.12
2019-05-17T14:29:52.850Z,17.25
2019-05-17T14:32:24.332Z,17.43
2019-05-17T14:34:55.856Z,17.40
2019-05-17T14:37:27.468Z,17.46
2019-05-17T14:40:01.114Z,17.41
2019-05-17T14:42:34.425Z,17.48
2019-05-17T14:45:05.978Z,17.68
2019-05-17T14:47:37.389Z,17.62
2019-05-17T14:50:08.643Z,17.44
2019-05-17T14:52:40.030Z,17.32
2019-05-17T14:55:11.751Z,17.35
2019-05-17T14:57:43.381Z,17.27
2019-05-17T15:00:14.673Z,17.37
2019-05-17T15:02:45.949Z,17.45
2019-05-17T15:05:17.524Z,17.49
2019-05-17T15:07:48.802Z,17.26
2019-05-17T15:10:20.275Z,17.21
2019-05-17T15:12:51.733Z,17.18
2019-05-17T15:15:26.657Z,17.24
2019-05-17T15:18:00.530Z,17.14
2019-05-17T15:20:31.945Z,17.15
2019-05-17T15:23:03.610Z,17.16
2019-05-17T15:25:34.838Z,17.03
2019-05-17T15:28:06.185Z,16.91
2019-05-17T15:30:38.256Z,17.02
2019-05-17T15:33:09.699Z,16.95
2019-05-17T15:35:41.290Z,17.15
2019-05-17T15:38:12.546Z,17.19
2019-05-17T15:40:43.807Z,17.35
2019-05-17T15:43:14.988Z,17.30
2019-05-17T15:45:46.232Z,17.22
2019-05-17T15:48:17.736Z,17.18
2019-05-17T15:50:49.202Z,17.24
2019-05-17T15:53:20.537Z,17.24
2019-05-17T15:55:52.242Z,17.31
2019-05-17T15:58:23.423Z,17.31
2019-05-17T16:00:55.795Z,17.23
2019-05-17T16:03:27.345Z,17.28
2019-05-17T16:05:59.282Z,17.34
2019-05-17T16:08:31.603Z,17.35
2019-05-17T16:11:06.354Z,17.30
2019-05-17T16:13:39.679Z,17.32
2019-05-17T16:16:11.761Z,17.37
2019-05-17T16:18:43.178Z,17.08
2019-05-17T16:21:14.709Z,17.14
2019-05-17T16:23:46.709Z,17.36
2019-05-17T16:26:18.125Z,17.07
2019-05-17T16:28:49.332Z,17.03
2019-05-17T16:31:20.745Z,17.10
2019-05-17T16:33:51.958Z,17.16
2019-05-17T16:36:23.176Z,17.17
2019-05-17T16:38:58.451Z,17.08
2019-05-17T16:41:29.722Z,17.23
2019-05-17T16:44:00.926Z,17.36
2019-05-17T16:46:32.408Z,17.47
2019-05-17T16:49:04.012Z,17.27
2019-05-17T16:51:35.974Z,17.43
2019-05-17T16:54:07.816Z,17.43
2019-05-17T16:56:39.433Z,17.24
2019-05-17T16:59:10.708Z,17.01
2019-05-17T17:01:41.920Z,16.81
2019-05-17T17:04:13.452Z,16.95
2019-05-17T17:06:45.984Z,16.90
2019-05-17T17:09:17.248Z,16.69
2019-05-17T17:11:48.601Z,16.36
2019-05-17T17:14:25.216Z,16.46
2019-05-17T17:16:56.475Z,16.44
2019-05-17T17:19:28.185Z,16.43
2019-05-17T17:21:59.604Z,16.24
2019-05-17T17:24:31.397Z,16.26
2019-05-17T17:27:02.951Z,16.09
2019-05-17T17:29:34.671Z,15.98
2019-05-17T17:32:19.454Z,16.05
2019-05-17T17:34:39.116Z,15.65
2019-05-17T17:37:11.007Z,15.51
2019-05-17T17:39:42.277Z,15.41
2019-05-17T17:42:13.440Z,15.05
2019-05-17T17:44:45.775Z,15.09
2019-05-17T17:47:17.387Z,15.00
2019-05-17T17:49:49.028Z,14.79
2019-05-17T17:52:20.274Z,14.54
2019-05-17T17:54:53.691Z,14.06
2019-05-17T17:57:25.180Z,14.55
2019-05-17T17:59:56.444Z,14.44
2019-05-17T18:02:28.607Z,14.28
2019-05-17T18:04:59.975Z,14.21
2019-05-17T18:07:31.312Z,14.17
2019-05-17T18:10:02.671Z,14.15
2019-05-17T18:12:34.023Z,14.12
2019-05-17T18:15:07.639Z,14.18
2019-05-17T18:17:39.685Z,14.14
2019-05-17T18:20:17.044Z,14.20
2019-05-17T18:22:53.550Z,13.99
2019-05-17T18:25:24.855Z,14.06
2019-05-17T18:27:56.617Z,14.06
2019-05-17T18:30:28.494Z,13.87
2019-05-17T18:33:00.015Z,13.79
2019-05-17T18:35:31.580Z,13.58
2019-05-17T18:38:03.355Z,13.71
2019-05-17T18:40:34.619Z,13.31
2019-05-17T18:43:05.961Z,13.42
2019-05-17T18:45:37.345Z,13.38
2019-05-17T18:48:09.111Z,13.19
2019-05-17T18:50:40.366Z,13.14
2019-05-17T18:53:16.801Z,13.24
2019-05-17T18:55:44.996Z,13.22
2019-05-17T18:58:16.196Z,13.12
2019-05-17T19:00:47.812Z,13.08
2019-05-17T19:03:19.232Z,13.07
2019-05-17T19:05:50.951Z,13.30
2019-05-17T19:08:22.184Z,12.95
2019-05-17T19:10:54.141Z,12.86
2019-05-17T19:13:25.632Z,12.89
2019-05-17T19:15:56.830Z,12.87
2019-05-17T19:18:28.070Z,12.79
2019-05-17T19:20:59.476Z,12.80
2019-05-17T19:23:31.178Z,12.80
2019-05-17T19:26:03.053Z,12.67
2019-05-17T19:28:37.274Z,12.71
2019-05-17T19:31:08.542Z,12.67
2019-05-17T19:33:40.263Z,12.45
2019-05-17T19:36:11.515Z,12.48
2019-05-17T19:38:42.749Z,12.63
2019-05-17T19:41:14.323Z,12.52
2019-05-17T19:43:45.678Z,12.42
2019-05-17T19:46:16.907Z,12.34
2019-05-17T19:48:48.617Z,12.40
2019-05-17T19:51:20.038Z,12.20
2019-05-17T19:53:51.657Z,12.27
2019-05-17T19:56:22.912Z,12.33
2019-05-17T19:58:54.641Z,12.25
2019-05-17T20:01:26.930Z,12.13
2019-05-17T20:03:58.618Z,12.12
2019-05-17T20:06:29.840Z,12.17
2019-05-17T20:09:01.392Z,12.04
2019-05-17T20:11:34.672Z,11.97
2019-05-17T20:14:05.538Z,11.88
2019-05-17T20:16:36.769Z,11.74
2019-05-17T20:19:08.323Z,11.74
2019-05-17T20:21:39.590Z,11.72
2019-05-17T20:24:10.769Z,11.68
2019-05-17T20:26:42.035Z,11.71
2019-05-17T20:29:13.733Z,11.73
2019-05-17T20:31:45.576Z,11.76
2019-05-17T20:34:17.088Z,11.52
2019-05-17T20:36:48.763Z,11.57
2019-05-17T20:39:20.040Z,11.44
2019-05-17T20:41:51.399Z,11.40
2019-05-17T20:44:22.945Z,11.39
2019-05-17T20:46:54.146Z,11.29
2019-05-17T20:49:25.504Z,11.25
2019-05-17T20:51:56.866Z,11.20
2019-05-17T20:54:28.062Z,11.09
2019-05-17T20:56:59.546Z,11.12
2019-05-17T20:59:31.579Z,11.09
2019-05-17T21:02:03.029Z,10.99
2019-05-17T21:04:34.232Z,10.67
2019-05-17T21:07:05.468Z,10.74
2019-05-17T21:09:37.367Z,10.44
2019-05-17T21:12:08.635Z,10.58
2019-05-17T21:14:40.088Z,10.46
2019-05-17T21:17:12.003Z,10.42
2019-05-17T21:19:43.244Z,10.51
2019-05-17T21:22:15.124Z,10.45
2019-05-17T21:24:46.707Z,10.29
2019-05-17T21:27:17.991Z,10.37
2019-05-17T21:29:49.913Z,10.46
2019-05-17T21:32:21.127Z,10.41
2019-05-17T21:34:52.475Z,10.37
2019-05-17T21:37:23.712Z,10.33
2019-05-17T21:39:55.423Z,10.41
2019-05-17T21:42:26.811Z,10.31
2019-05-17T21:44:58.625Z,10.29
2019-05-17T21:47:29.852Z,10.36
2019-05-17T21:50:02.896Z,10.35
2019-05-17T21:52:34.237Z,10.17
2019-05-17T21:55:05.512Z,9.90
2019-05-17T21:57:36.752Z,9.88
2019-05-17T22:00:10.985Z,9.91
2019-05-17T22:02:43.460Z,9.95
2019-05-17T22:05:22.973Z,10.07
2019-05-17T22:07:54.262Z,9.95
2019-05-17T22:10:25.960Z,9.98
2019-05-17T22:12:57.322Z,10.04
2019-05-17T22:15:29.376Z,9.93
2019-05-17T22:18:18.868Z,9.97
2019-05-17T22:20:50.232Z,9.84
2019-05-17T22:23:39.403Z,9.80
2019-05-17T22:26:22.821Z,9.63
2019-05-17T22:28:54.419Z,9.69
2019-05-17T22:31:25.691Z,9.56
2019-05-17T22:33:57.276Z,9.63
2019-05-17T22:36:28.815Z,9.55
2019-05-17T22:39:00.313Z,9.54
2019-05-17T22:41:31.514Z,9.57
2019-05-17T22:44:03.280Z,9.36
2019-05-17T22:46:36.414Z,9.26
2019-05-17T22:49:07.796Z,9.12
2019-05-17T22:51:39.012Z,9.19
2019-05-17T22:54:10.448Z,9.19
2019-05-17T22:56:41.861Z,9.22
2019-05-17T22:59:13.217Z,9.23
2019-05-17T23:01:45.085Z,9.02
2019-05-17T23:04:16.409Z,9.16
2019-05-17T23:06:47.745Z,9.14
2019-05-17T23:09:19.028Z,9.14
2019-05-17T23:11:50.252Z,9.10
2019-05-17T23:14:21.494Z,9.12
2019-05-17T23:16:53.079Z,9.09
2019-05-17T23:19:24.550Z,8.88
2019-05-17T23:21:56.118Z,8.88
2019-05-17T23:27:52.239Z,8.93
2019-05-17T23:30:23.607Z,8.91
2019-05-17T23:32:54.787Z,8.82
2019-05-17T23:35:25.985Z,8.72
2019-05-17T23:37:57.423Z,8.80
2019-05-17T23:40:28.637Z,8.60
2019-05-17T23:42:59.920Z,8.50
2019-05-17T23:45:31.327Z,8.58
2019-05-17T23:48:03.929Z,8.54
2019-05-17T23:50:35.196Z,8.66
2019-05-17T23:53:06.690Z,8.71
2019-05-17T23:55:38.143Z,8.67
2019-05-17T23:58:09.388Z,8.53
